sensor_id;sensor_type;location;lat;lon;timestamp;temperature;humidity
1546;DHT22;766;51.502;9.752;2024-01-11T00:01:15;-7.90;99.90
1546;DHT22;766;51.502;9.752;2024-01-11T00:03:44;-7.90;99.90
1546;DHT22;766;51.502;9.752;2024-01-11T00:06:15;-7.90;99.90
1546;DHT22;766;51.502;9.752;2024-01-11T00:08:43;-8.00;99.90
1546;DHT22;766;51.502;9.752;2024-01-11T00:11:12;-8.10;99.90
1546;DHT22;766;51.502;9.752;2024-01-11T00:13:45;-8.20;99.90
1546;DHT22;766;51.502;9.752;2024-01-11T00:16:13;-8.20;99.90
1546;DHT22;766;51.502;9.752;2024-01-11T00:18:42;-8.20;99.90
1546;DHT22;766;51.502;9.752;2024-01-11T00:21:12;-8.20;99.90
1546;DHT22;766;51.502;9.752;2024-01-11T00:23:40;-8.20;99.90
1546;DHT22;766;51.502;9.752;2024-01-11T00:26:08;-8.10;99.90
1546;DHT22;766;51.502;9.752;2024-01-11T00:28:36;-8.20;99.90
1546;DHT22;766;51.502;9.752;2024-01-11T00:31:06;-8.10;99.90
1546;DHT22;766;51.502;9.752;2024-01-11T00:33:34;-8.20;99.90
1546;DHT22;766;51.502;9.752;2024-01-11T00:36:03;-8.30;99.90
1546;DHT22;766;51.502;9.752;2024-01-11T00:38:32;-8.30;99.90
1546;DHT22;766;51.502;9.752;2024-01-11T00:41:00;-8.30;99.90
1546;DHT22;766;51.502;9.752;2024-01-11T00:43:28;-8.30;99.90
1546;DHT22;766;51.502;9.752;2024-01-11T00:45:57;-8.20;99.90
1546;DHT22;766;51.502;9.752;2024-01-11T00:48:26;-8.20;99.90
1546;DHT22;766;51.502;9.752;2024-01-11T00:50:54;-8.10;99.90
1546;DHT22;766;51.502;9.752;2024-01-11T00:53:22;-8.10;99.90
1546;DHT22;766;51.502;9.752;2024-01-11T00:55:51;-8.00;99.90
1546;DHT22;766;51.502;9.752;2024-01-11T00:58:19;-8.00;99.90
1546;DHT22;766;51.502;9.752;2024-01-11T01:00:47;-7.90;99.90
1546;DHT22;766;51.502;9.752;2024-01-11T01:03:15;-7.80;99.90
1546;DHT22;766;51.502;9.752;2024-01-11T01:05:45;-7.80;99.90
1546;DHT22;766;51.502;9.752;2024-01-11T01:08:14;-7.80;99.90
1546;DHT22;766;51.502;9.752;2024-01-11T01:10:42;-7.80;99.90
1546;DHT22;766;51.502;9.752;2024-01-11T01:13:11;-7.80;99.90
1546;DHT22;766;51.502;9.752;2024-01-11T01:15:39;-8.00;99.90
1546;DHT22;766;51.502;9.752;2024-01-11T01:18:07;-8.10;99.90
1546;DHT22;766;51.502;9.752;2024-01-11T01:20:36;-8.20;99.90
1546;DHT22;766;51.502;9.752;2024-01-11T01:23:05;-8.30;99.90
1546;DHT22;766;51.502;9.752;2024-01-11T01:25:34;-8.30;99.90
1546;DHT22;766;51.502;9.752;2024-01-11T01:28:02;-8.40;99.90
1546;DHT22;766;51.502;9.752;2024-01-11T01:30:30;-8.40;99.90
1546;DHT22;766;51.502;9.752;2024-01-11T01:32:58;-8.30;99.90
1546;DHT22;766;51.502;9.752;2024-01-11T01:35:27;-8.50;99.90
1546;DHT22;766;51.502;9.752;2024-01-11T01:37:55;-8.50;99.90
1546;DHT22;766;51.502;9.752;2024-01-11T01:40:25;-8.60;99.90
1546;DHT22;766;51.502;9.752;2024-01-11T01:42:58;-8.50;99.90
1546;DHT22;766;51.502;9.752;2024-01-11T01:45:26;-8.50;99.90
1546;DHT22;766;51.502;9.752;2024-01-11T01:47:55;-8.50;99.90
1546;DHT22;766;51.502;9.752;2024-01-11T01:50:24;-8.50;99.90
1546;DHT22;766;51.502;9.752;2024-01-11T01:52:54;-8.60;99.90
1546;DHT22;766;51.502;9.752;2024-01-11T01:55:24;-8.60;99.90
1546;DHT22;766;51.502;9.752;2024-01-11T01:57:53;-8.60;99.90
1546;DHT22;766;51.502;9.752;2024-01-11T02:00:22;-8.60;99.90
1546;DHT22;766;51.502;9.752;2024-01-11T02:02:51;-8.60;99.90
1546;DHT22;766;51.502;9.752;2024-01-11T02:05:20;-8.60;99.90
1546;DHT22;766;51.502;9.752;2024-01-11T02:07:49;-8.50;99.90
1546;DHT22;766;51.502;9.752;2024-01-11T02:10:17;-8.60;99.90
1546;DHT22;766;51.502;9.752;2024-01-11T02:12:48;-8.60;99.90
1546;DHT22;766;51.502;9.752;2024-01-11T02:15:16;-8.60;99.90
1546;DHT22;766;51.502;9.752;2024-01-11T02:17:44;-8.50;99.90
1546;DHT22;766;51.502;9.752;2024-01-11T02:20:13;-8.50;99.90
1546;DHT22;766;51.502;9.752;2024-01-11T02:22:44;-8.50;99.90
1546;DHT22;766;51.502;9.752;2024-01-11T02:25:16;-8.50;99.90
1546;DHT22;766;51.502;9.752;2024-01-11T02:27:45;-8.50;99.90
1546;DHT22;766;51.502;9.752;2024-01-11T02:30:14;-8.50;99.90
1546;DHT22;766;51.502;9.752;2024-01-11T02:32:43;-8.50;99.90
1546;DHT22;766;51.502;9.752;2024-01-11T02:35:15;-8.60;99.90
1546;DHT22;766;51.502;9.752;2024-01-11T02:37:44;-8.60;99.90
1546;DHT22;766;51.502;9.752;2024-01-11T02:40:13;-8.70;99.90
1546;DHT22;766;51.502;9.752;2024-01-11T02:42:43;-8.70;99.90
1546;DHT22;766;51.502;9.752;2024-01-11T02:45:12;-8.70;99.90
1546;DHT22;766;51.502;9.752;2024-01-11T02:47:40;-8.70;99.90
1546;DHT22;766;51.502;9.752;2024-01-11T02:50:09;-8.80;99.90
1546;DHT22;766;51.502;9.752;2024-01-11T02:52:39;-8.80;99.90
1546;DHT22;766;51.502;9.752;2024-01-11T02:55:07;-8.80;99.90
1546;DHT22;766;51.502;9.752;2024-01-11T02:57:36;-8.80;99.90
1546;DHT22;766;51.502;9.752;2024-01-11T03:00:06;-8.80;99.90
1546;DHT22;766;51.502;9.752;2024-01-11T03:02:37;-8.80;99.90
1546;DHT22;766;51.502;9.752;2024-01-11T03:05:06;-8.70;99.90
1546;DHT22;766;51.502;9.752;2024-01-11T03:07:34;-8.70;99.90
1546;DHT22;766;51.502;9.752;2024-01-11T03:10:03;-8.70;99.90
1546;DHT22;766;51.502;9.752;2024-01-11T03:12:31;-8.70;99.90
1546;DHT22;766;51.502;9.752;2024-01-11T03:14:59;-8.70;99.90
1546;DHT22;766;51.502;9.752;2024-01-11T03:17:28;-8.80;99.90
1546;DHT22;766;51.502;9.752;2024-01-11T03:19:57;-8.80;99.90
1546;DHT22;766;51.502;9.752;2024-01-11T03:22:26;-8.80;99.90
1546;DHT22;766;51.502;9.752;2024-01-11T03:24:55;-8.80;99.90
1546;DHT22;766;51.502;9.752;2024-01-11T03:27:23;-8.80;99.90
1546;DHT22;766;51.502;9.752;2024-01-11T03:29:51;-8.70;99.90
1546;DHT22;766;51.502;9.752;2024-01-11T03:32:19;-8.80;99.90
1546;DHT22;766;51.502;9.752;2024-01-11T03:34:49;-8.80;99.90
1546;DHT22;766;51.502;9.752;2024-01-11T03:37:17;-8.80;99.90
1546;DHT22;766;51.502;9.752;2024-01-11T03:39:45;-8.70;99.90
1546;DHT22;766;51.502;9.752;2024-01-11T03:42:13;-8.80;99.90
1546;DHT22;766;51.502;9.752;2024-01-11T03:44:41;-8.80;99.90
1546;DHT22;766;51.502;9.752;2024-01-11T03:47:10;-8.80;99.90
1546;DHT22;766;51.502;9.752;2024-01-11T03:49:39;-8.90;99.90
1546;DHT22;766;51.502;9.752;2024-01-11T03:52:08;-8.90;99.90
1546;DHT22;766;51.502;9.752;2024-01-11T03:54:36;-8.80;99.90
1546;DHT22;766;51.502;9.752;2024-01-11T03:57:05;-8.80;99.90
1546;DHT22;766;51.502;9.752;2024-01-11T03:59:33;-8.80;99.90
1546;DHT22;766;51.502;9.752;2024-01-11T04:02:02;-8.80;99.90
1546;DHT22;766;51.502;9.752;2024-01-11T04:04:30;-8.80;99.90
1546;DHT22;766;51.502;9.752;2024-01-11T04:06:58;-8.80;99.90
1546;DHT22;766;51.502;9.752;2024-01-11T04:09:28;-8.90;99.90
1546;DHT22;766;51.502;9.752;2024-01-11T04:11:56;-8.90;99.90
1546;DHT22;766;51.502;9.752;2024-01-11T04:14:24;-8.90;99.90
1546;DHT22;766;51.502;9.752;2024-01-11T04:16:52;-8.80;99.90
1546;DHT22;766;51.502;9.752;2024-01-11T04:19:21;-8.70;99.90
1546;DHT22;766;51.502;9.752;2024-01-11T04:21:50;-8.80;99.90
1546;DHT22;766;51.502;9.752;2024-01-11T04:24:18;-8.80;99.90
1546;DHT22;766;51.502;9.752;2024-01-11T04:26:47;-8.80;99.90
1546;DHT22;766;51.502;9.752;2024-01-11T04:29:15;-8.70;99.90
1546;DHT22;766;51.502;9.752;2024-01-11T04:31:44;-8.70;99.90
1546;DHT22;766;51.502;9.752;2024-01-11T04:34:12;-8.70;99.90
1546;DHT22;766;51.502;9.752;2024-01-11T04:36:40;-8.70;99.90
1546;DHT22;766;51.502;9.752;2024-01-11T04:39:09;-8.70;99.90
1546;DHT22;766;51.502;9.752;2024-01-11T04:41:38;-8.80;99.90
1546;DHT22;766;51.502;9.752;2024-01-11T04:44:10;-8.80;99.90
1546;DHT22;766;51.502;9.752;2024-01-11T04:46:38;-8.90;99.90
1546;DHT22;766;51.502;9.752;2024-01-11T04:49:06;-8.90;99.90
1546;DHT22;766;51.502;9.752;2024-01-11T04:51:34;-9.00;99.90
1546;DHT22;766;51.502;9.752;2024-01-11T04:54:03;-8.90;99.90
1546;DHT22;766;51.502;9.752;2024-01-11T04:56:31;-8.90;99.90
1546;DHT22;766;51.502;9.752;2024-01-11T04:58:59;-8.90;99.90
1546;DHT22;766;51.502;9.752;2024-01-11T05:01:28;-8.90;99.90
1546;DHT22;766;51.502;9.752;2024-01-11T05:03:58;-9.00;99.90
1546;DHT22;766;51.502;9.752;2024-01-11T05:06:26;-9.00;99.90
1546;DHT22;766;51.502;9.752;2024-01-11T05:08:54;-9.00;99.90
1546;DHT22;766;51.502;9.752;2024-01-11T05:11:25;-9.00;99.90
1546;DHT22;766;51.502;9.752;2024-01-11T05:13:54;-9.00;99.90
1546;DHT22;766;51.502;9.752;2024-01-11T05:16:23;-8.90;99.90
1546;DHT22;766;51.502;9.752;2024-01-11T05:18:54;-8.90;99.90
1546;DHT22;766;51.502;9.752;2024-01-11T05:21:23;-8.90;99.90
1546;DHT22;766;51.502;9.752;2024-01-11T05:23:51;-8.90;99.90
1546;DHT22;766;51.502;9.752;2024-01-11T05:26:20;-8.90;99.90
1546;DHT22;766;51.502;9.752;2024-01-11T05:28:49;-8.90;99.90
1546;DHT22;766;51.502;9.752;2024-01-11T05:31:17;-8.80;99.90
1546;DHT22;766;51.502;9.752;2024-01-11T05:33:46;-8.80;99.90
1546;DHT22;766;51.502;9.752;2024-01-11T05:36:16;-8.80;99.90
1546;DHT22;766;51.502;9.752;2024-01-11T05:38:45;-8.60;99.90
1546;DHT22;766;51.502;9.752;2024-01-11T05:41:13;-8.50;99.90
1546;DHT22;766;51.502;9.752;2024-01-11T05:43:41;-8.50;99.90
1546;DHT22;766;51.502;9.752;2024-01-11T05:46:13;-8.30;99.90
1546;DHT22;766;51.502;9.752;2024-01-11T05:48:42;-8.30;99.90
1546;DHT22;766;51.502;9.752;2024-01-11T05:51:10;-8.20;99.90
1546;DHT22;766;51.502;9.752;2024-01-11T05:53:40;-8.30;99.90
1546;DHT22;766;51.502;9.752;2024-01-11T05:56:08;-8.30;99.90
1546;DHT22;766;51.502;9.752;2024-01-11T05:58:39;-8.30;99.90
1546;DHT22;766;51.502;9.752;2024-01-11T06:01:07;-8.30;99.90
1546;DHT22;766;51.502;9.752;2024-01-11T06:03:36;-8.40;99.90
1546;DHT22;766;51.502;9.752;2024-01-11T06:06:05;-8.40;99.90
1546;DHT22;766;51.502;9.752;2024-01-11T06:08:35;-8.40;99.90
1546;DHT22;766;51.502;9.752;2024-01-11T06:11:05;-8.40;99.90
1546;DHT22;766;51.502;9.752;2024-01-11T06:13:35;-8.40;99.90
1546;DHT22;766;51.502;9.752;2024-01-11T06:16:03;-8.60;99.90
1546;DHT22;766;51.502;9.752;2024-01-11T06:18:31;-8.60;99.90
1546;DHT22;766;51.502;9.752;2024-01-11T06:21:00;-8.60;99.90
1546;DHT22;766;51.502;9.752;2024-01-11T06:23:28;-8.50;99.90
1546;DHT22;766;51.502;9.752;2024-01-11T06:25:56;-8.60;99.90
1546;DHT22;766;51.502;9.752;2024-01-11T06:28:26;-8.60;99.90
1546;DHT22;766;51.502;9.752;2024-01-11T06:30:54;-8.60;99.90
1546;DHT22;766;51.502;9.752;2024-01-11T06:33:22;-8.60;99.90
1546;DHT22;766;51.502;9.752;2024-01-11T06:35:50;-8.60;99.90
1546;DHT22;766;51.502;9.752;2024-01-11T06:38:19;-8.60;99.90
1546;DHT22;766;51.502;9.752;2024-01-11T06:40:47;-8.60;99.90
1546;DHT22;766;51.502;9.752;2024-01-11T06:43:16;-8.70;99.90
1546;DHT22;766;51.502;9.752;2024-01-11T06:45:45;-8.70;99.90
1546;DHT22;766;51.502;9.752;2024-01-11T06:48:13;-8.70;99.90
1546;DHT22;766;51.502;9.752;2024-01-11T06:50:42;-8.80;99.90
1546;DHT22;766;51.502;9.752;2024-01-11T06:53:10;-8.70;99.90
1546;DHT22;766;51.502;9.752;2024-01-11T06:55:38;-8.70;99.90
1546;DHT22;766;51.502;9.752;2024-01-11T06:58:08;-8.70;99.90
1546;DHT22;766;51.502;9.752;2024-01-11T07:00:36;-8.70;99.90
1546;DHT22;766;51.502;9.752;2024-01-11T07:03:11;-8.70;99.90
1546;DHT22;766;51.502;9.752;2024-01-11T07:05:40;-8.70;99.90
1546;DHT22;766;51.502;9.752;2024-01-11T07:08:08;-8.70;99.90
1546;DHT22;766;51.502;9.752;2024-01-11T07:10:36;-8.60;99.90
1546;DHT22;766;51.502;9.752;2024-01-11T07:13:05;-8.60;99.90
1546;DHT22;766;51.502;9.752;2024-01-11T07:15:33;-8.70;99.90
1546;DHT22;766;51.502;9.752;2024-01-11T07:18:02;-8.90;99.90
1546;DHT22;766;51.502;9.752;2024-01-11T07:20:32;-8.80;99.90
1546;DHT22;766;51.502;9.752;2024-01-11T07:23:00;-8.70;99.90
1546;DHT22;766;51.502;9.752;2024-01-11T07:25:28;-8.60;99.90
1546;DHT22;766;51.502;9.752;2024-01-11T07:27:57;-8.60;99.90
1546;DHT22;766;51.502;9.752;2024-01-11T07:30:26;-8.60;99.90
1546;DHT22;766;51.502;9.752;2024-01-11T07:32:54;-8.50;99.90
1546;DHT22;766;51.502;9.752;2024-01-11T07:35:22;-8.50;99.90
1546;DHT22;766;51.502;9.752;2024-01-11T07:37:52;-8.40;99.90
1546;DHT22;766;51.502;9.752;2024-01-11T07:40:21;-8.40;99.90
1546;DHT22;766;51.502;9.752;2024-01-11T07:42:52;-8.40;99.90
1546;DHT22;766;51.502;9.752;2024-01-11T07:45:21;-8.40;99.90
1546;DHT22;766;51.502;9.752;2024-01-11T07:47:49;-8.40;99.90
1546;DHT22;766;51.502;9.752;2024-01-11T07:50:18;-8.30;99.90
1546;DHT22;766;51.502;9.752;2024-01-11T07:52:47;-8.30;99.90
1546;DHT22;766;51.502;9.752;2024-01-11T07:55:16;-8.30;99.90
1546;DHT22;766;51.502;9.752;2024-01-11T07:57:45;-8.30;99.90
1546;DHT22;766;51.502;9.752;2024-01-11T08:00:13;-8.40;99.90
1546;DHT22;766;51.502;9.752;2024-01-11T08:02:42;-8.30;99.90
1546;DHT22;766;51.502;9.752;2024-01-11T08:05:11;-8.30;99.90
1546;DHT22;766;51.502;9.752;2024-01-11T08:07:39;-8.30;99.90
1546;DHT22;766;51.502;9.752;2024-01-11T08:10:09;-8.20;99.90
1546;DHT22;766;51.502;9.752;2024-01-11T08:12:38;-8.20;99.90
1546;DHT22;766;51.502;9.752;2024-01-11T08:15:07;-8.20;99.90
1546;DHT22;766;51.502;9.752;2024-01-11T08:17:39;-8.20;99.90
1546;DHT22;766;51.502;9.752;2024-01-11T08:20:14;-8.10;99.90
1546;DHT22;766;51.502;9.752;2024-01-11T08:22:42;-8.10;99.90
1546;DHT22;766;51.502;9.752;2024-01-11T08:25:11;-8.00;99.90
1546;DHT22;766;51.502;9.752;2024-01-11T08:27:41;-8.00;99.90
1546;DHT22;766;51.502;9.752;2024-01-11T08:30:10;-8.00;99.90
1546;DHT22;766;51.502;9.752;2024-01-11T08:32:39;-7.90;99.90
1546;DHT22;766;51.502;9.752;2024-01-11T08:35:09;-7.90;99.90
1546;DHT22;766;51.502;9.752;2024-01-11T08:37:38;-7.80;99.90
1546;DHT22;766;51.502;9.752;2024-01-11T08:40:07;-7.80;99.90
1546;DHT22;766;51.502;9.752;2024-01-11T08:42:38;-7.70;99.90
1546;DHT22;766;51.502;9.752;2024-01-11T08:45:10;-7.60;99.90
1546;DHT22;766;51.502;9.752;2024-01-11T08:47:44;-7.60;99.90
1546;DHT22;766;51.502;9.752;2024-01-11T08:50:14;-7.50;99.90
1546;DHT22;766;51.502;9.752;2024-01-11T08:52:44;-7.50;99.90
1546;DHT22;766;51.502;9.752;2024-01-11T08:55:14;-7.40;99.90
1546;DHT22;766;51.502;9.752;2024-01-11T08:57:42;-7.30;99.90
1546;DHT22;766;51.502;9.752;2024-01-11T09:00:13;-7.20;99.90
1546;DHT22;766;51.502;9.752;2024-01-11T09:02:44;-7.10;99.90
1546;DHT22;766;51.502;9.752;2024-01-11T09:05:14;-7.00;99.90
1546;DHT22;766;51.502;9.752;2024-01-11T09:07:43;-6.90;99.90
1546;DHT22;766;51.502;9.752;2024-01-11T09:10:12;-6.80;99.90
1546;DHT22;766;51.502;9.752;2024-01-11T09:12:40;-6.70;99.90
1546;DHT22;766;51.502;9.752;2024-01-11T09:15:08;-6.60;99.90
1546;DHT22;766;51.502;9.752;2024-01-11T09:17:38;-6.50;99.90
1546;DHT22;766;51.502;9.752;2024-01-11T09:20:07;-6.40;99.90
1546;DHT22;766;51.502;9.752;2024-01-11T09:22:36;-6.30;99.90
1546;DHT22;766;51.502;9.752;2024-01-11T09:25:04;-6.20;99.90
1546;DHT22;766;51.502;9.752;2024-01-11T09:27:34;-6.10;99.90
1546;DHT22;766;51.502;9.752;2024-01-11T09:30:02;-6.00;99.90
1546;DHT22;766;51.502;9.752;2024-01-11T09:32:31;-6.00;99.90
1546;DHT22;766;51.502;9.752;2024-01-11T09:35:01;-5.90;99.90
1546;DHT22;766;51.502;9.752;2024-01-11T09:37:31;-5.80;99.90
1546;DHT22;766;51.502;9.752;2024-01-11T09:40:00;-5.80;99.90
1546;DHT22;766;51.502;9.752;2024-01-11T09:42:28;-5.70;99.90
1546;DHT22;766;51.502;9.752;2024-01-11T09:44:57;-5.60;99.90
1546;DHT22;766;51.502;9.752;2024-01-11T09:47:26;-5.50;99.90
1546;DHT22;766;51.502;9.752;2024-01-11T09:49:55;-5.40;99.90
1546;DHT22;766;51.502;9.752;2024-01-11T09:52:29;-5.30;99.90
1546;DHT22;766;51.502;9.752;2024-01-11T09:55:01;-5.20;99.90
1546;DHT22;766;51.502;9.752;2024-01-11T09:57:30;-5.10;99.90
1546;DHT22;766;51.502;9.752;2024-01-11T10:00:04;-5.10;99.90
1546;DHT22;766;51.502;9.752;2024-01-11T10:02:34;-4.80;99.90
1546;DHT22;766;51.502;9.752;2024-01-11T10:05:03;-4.70;99.90
1546;DHT22;766;51.502;9.752;2024-01-11T10:07:34;-4.60;99.90
1546;DHT22;766;51.502;9.752;2024-01-11T10:10:03;-4.40;99.90
1546;DHT22;766;51.502;9.752;2024-01-11T10:12:32;-4.20;99.90
1546;DHT22;766;51.502;9.752;2024-01-11T10:15:06;-4.10;99.90
1546;DHT22;766;51.502;9.752;2024-01-11T10:17:41;-3.90;99.90
1546;DHT22;766;51.502;9.752;2024-01-11T10:20:11;-3.70;99.90
1546;DHT22;766;51.502;9.752;2024-01-11T10:22:43;-3.50;99.90
1546;DHT22;766;51.502;9.752;2024-01-11T10:25:13;-3.30;99.90
1546;DHT22;766;51.502;9.752;2024-01-11T10:27:43;-3.30;99.90
1546;DHT22;766;51.502;9.752;2024-01-11T10:30:14;-3.10;99.90
1546;DHT22;766;51.502;9.752;2024-01-11T10:32:45;-3.00;99.90
1546;DHT22;766;51.502;9.752;2024-01-11T10:35:15;-2.90;99.90
1546;DHT22;766;51.502;9.752;2024-01-11T10:37:50;-2.80;99.90
1546;DHT22;766;51.502;9.752;2024-01-11T10:40:21;-2.70;99.90
1546;DHT22;766;51.502;9.752;2024-01-11T10:42:53;-2.50;99.90
1546;DHT22;766;51.502;9.752;2024-01-11T10:45:23;-2.40;99.90
1546;DHT22;766;51.502;9.752;2024-01-11T10:47:54;-2.30;99.90
1546;DHT22;766;51.502;9.752;2024-01-11T10:50:30;-2.20;99.90
1546;DHT22;766;51.502;9.752;2024-01-11T10:53:12;-2.10;99.90
1546;DHT22;766;51.502;9.752;2024-01-11T10:55:41;-2.00;99.90
1546;DHT22;766;51.502;9.752;2024-01-11T10:58:11;-1.90;99.90
1546;DHT22;766;51.502;9.752;2024-01-11T11:00:40;-1.80;99.90
1546;DHT22;766;51.502;9.752;2024-01-11T11:03:09;-1.70;99.90
1546;DHT22;766;51.502;9.752;2024-01-11T11:05:40;-1.60;99.90
1546;DHT22;766;51.502;9.752;2024-01-11T11:08:12;-1.40;99.90
1546;DHT22;766;51.502;9.752;2024-01-11T11:10:42;-1.40;99.90
1546;DHT22;766;51.502;9.752;2024-01-11T11:13:12;-1.30;99.90
1546;DHT22;766;51.502;9.752;2024-01-11T11:15:44;-1.20;99.90
1546;DHT22;766;51.502;9.752;2024-01-11T11:18:13;-1.00;99.90
1546;DHT22;766;51.502;9.752;2024-01-11T11:20:42;-0.90;99.90
1546;DHT22;766;51.502;9.752;2024-01-11T11:23:14;-0.90;99.90
1546;DHT22;766;51.502;9.752;2024-01-11T11:25:46;-0.80;99.90
1546;DHT22;766;51.502;9.752;2024-01-11T11:28:16;-0.80;99.90
1546;DHT22;766;51.502;9.752;2024-01-11T11:30:48;-0.80;99.90
1546;DHT22;766;51.502;9.752;2024-01-11T11:33:20;-0.80;99.90
1546;DHT22;766;51.502;9.752;2024-01-11T11:35:52;-0.60;99.90
1546;DHT22;766;51.502;9.752;2024-01-11T11:38:24;-0.60;99.90
1546;DHT22;766;51.502;9.752;2024-01-11T11:40:54;-0.50;99.90
1546;DHT22;766;51.502;9.752;2024-01-11T11:43:23;-0.50;99.90
1546;DHT22;766;51.502;9.752;2024-01-11T11:45:52;-0.50;99.90
1546;DHT22;766;51.502;9.752;2024-01-11T11:48:48;-0.30;99.90
1546;DHT22;766;51.502;9.752;2024-01-11T11:51:19;-0.30;99.90
1546;DHT22;766;51.502;9.752;2024-01-11T11:53:54;-0.20;99.90
1546;DHT22;766;51.502;9.752;2024-01-11T11:56:23;-0.20;99.90
1546;DHT22;766;51.502;9.752;2024-01-11T11:58:54;-0.30;99.90
1546;DHT22;766;51.502;9.752;2024-01-11T12:01:23;-0.10;99.90
1546;DHT22;766;51.502;9.752;2024-01-11T12:03:52;0.70;99.90
1546;DHT22;766;51.502;9.752;2024-01-11T12:06:24;2.30;99.90
1546;DHT22;766;51.502;9.752;2024-01-11T12:08:56;5.30;99.90
1546;DHT22;766;51.502;9.752;2024-01-11T12:11:25;7.50;99.90
1546;DHT22;766;51.502;9.752;2024-01-11T12:13:54;9.30;99.90
1546;DHT22;766;51.502;9.752;2024-01-11T12:16:25;8.90;99.90
1546;DHT22;766;51.502;9.752;2024-01-11T12:18:55;7.00;99.90
1546;DHT22;766;51.502;9.752;2024-01-11T12:21:24;5.30;99.90
1546;DHT22;766;51.502;9.752;2024-01-11T12:23:53;4.20;99.90
1546;DHT22;766;51.502;9.752;2024-01-11T12:26:22;3.30;99.90
1546;DHT22;766;51.502;9.752;2024-01-11T12:28:51;2.80;99.90
1546;DHT22;766;51.502;9.752;2024-01-11T12:31:21;2.70;99.90
1546;DHT22;766;51.502;9.752;2024-01-11T12:33:50;2.90;99.90
1546;DHT22;766;51.502;9.752;2024-01-11T12:36:18;3.50;99.90
1546;DHT22;766;51.502;9.752;2024-01-11T12:38:47;5.10;99.90
1546;DHT22;766;51.502;9.752;2024-01-11T12:41:22;7.00;99.90
1546;DHT22;766;51.502;9.752;2024-01-11T12:43:51;7.80;99.90
1546;DHT22;766;51.502;9.752;2024-01-11T12:46:20;6.60;99.90
1546;DHT22;766;51.502;9.752;2024-01-11T12:48:50;5.20;99.90
1546;DHT22;766;51.502;9.752;2024-01-11T12:51:19;4.20;99.90
1546;DHT22;766;51.502;9.752;2024-01-11T12:53:51;3.50;99.90
1546;DHT22;766;51.502;9.752;2024-01-11T12:56:22;3.10;99.90
1546;DHT22;766;51.502;9.752;2024-01-11T12:58:52;2.70;99.90
1546;DHT22;766;51.502;9.752;2024-01-11T13:01:33;2.50;99.90
1546;DHT22;766;51.502;9.752;2024-01-11T13:04:01;2.80;99.90
1546;DHT22;766;51.502;9.752;2024-01-11T13:06:31;3.40;99.90
1546;DHT22;766;51.502;9.752;2024-01-11T13:09:01;4.50;99.90
1546;DHT22;766;51.502;9.752;2024-01-11T13:11:32;5.20;99.90
1546;DHT22;766;51.502;9.752;2024-01-11T13:14:00;5.10;99.90
1546;DHT22;766;51.502;9.752;2024-01-11T13:16:33;4.10;99.90
1546;DHT22;766;51.502;9.752;2024-01-11T13:19:02;3.20;99.90
1546;DHT22;766;51.502;9.752;2024-01-11T13:21:45;2.80;99.90
1546;DHT22;766;51.502;9.752;2024-01-11T13:24:14;2.60;99.90
1546;DHT22;766;51.502;9.752;2024-01-11T13:26:44;2.40;99.90
1546;DHT22;766;51.502;9.752;2024-01-11T13:29:12;2.10;99.90
1546;DHT22;766;51.502;9.752;2024-01-11T13:31:40;1.80;99.90
1546;DHT22;766;51.502;9.752;2024-01-11T13:34:11;1.70;99.90
1546;DHT22;766;51.502;9.752;2024-01-11T13:36:39;1.50;99.90
1546;DHT22;766;51.502;9.752;2024-01-11T13:39:08;1.40;99.90
1546;DHT22;766;51.502;9.752;2024-01-11T13:41:36;1.40;99.90
1546;DHT22;766;51.502;9.752;2024-01-11T13:44:09;1.30;99.90
1546;DHT22;766;51.502;9.752;2024-01-11T13:46:38;1.10;99.90
1546;DHT22;766;51.502;9.752;2024-01-11T13:49:06;0.90;99.90
1546;DHT22;766;51.502;9.752;2024-01-11T13:51:35;0.70;99.90
1546;DHT22;766;51.502;9.752;2024-01-11T13:54:19;0.60;99.90
1546;DHT22;766;51.502;9.752;2024-01-11T13:56:49;0.40;99.90
1546;DHT22;766;51.502;9.752;2024-01-11T13:59:19;0.30;99.90
1546;DHT22;766;51.502;9.752;2024-01-11T14:01:48;0.20;99.90
1546;DHT22;766;51.502;9.752;2024-01-11T14:04:16;0.20;99.90
1546;DHT22;766;51.502;9.752;2024-01-11T14:06:44;0.10;99.90
1546;DHT22;766;51.502;9.752;2024-01-11T14:09:13;0.00;99.90
1546;DHT22;766;51.502;9.752;2024-01-11T14:11:41;-0.10;99.90
1546;DHT22;766;51.502;9.752;2024-01-11T14:14:09;-0.30;99.90
1546;DHT22;766;51.502;9.752;2024-01-11T14:16:39;-0.40;99.90
1546;DHT22;766;51.502;9.752;2024-01-11T14:19:07;-0.50;99.90
1546;DHT22;766;51.502;9.752;2024-01-11T14:21:36;-0.70;99.90
1546;DHT22;766;51.502;9.752;2024-01-11T14:24:05;-0.80;99.90
1546;DHT22;766;51.502;9.752;2024-01-11T14:26:34;-0.90;99.90
1546;DHT22;766;51.502;9.752;2024-01-11T14:29:02;-1.00;99.90
1546;DHT22;766;51.502;9.752;2024-01-11T14:31:30;-1.10;99.90
1546;DHT22;766;51.502;9.752;2024-01-11T14:34:03;-1.10;99.90
1546;DHT22;766;51.502;9.752;2024-01-11T14:36:31;-1.20;99.90
1546;DHT22;766;51.502;9.752;2024-01-11T14:39:00;-1.20;99.90
1546;DHT22;766;51.502;9.752;2024-01-11T14:41:31;-1.30;99.90
1546;DHT22;766;51.502;9.752;2024-01-11T14:44:02;-1.40;99.90
1546;DHT22;766;51.502;9.752;2024-01-11T14:46:31;-1.50;99.90
1546;DHT22;766;51.502;9.752;2024-01-11T14:48:59;-1.40;99.90
1546;DHT22;766;51.502;9.752;2024-01-11T14:51:32;-1.40;99.90
1546;DHT22;766;51.502;9.752;2024-01-11T14:54:00;-1.40;99.90
1546;DHT22;766;51.502;9.752;2024-01-11T14:56:30;-1.50;99.90
1546;DHT22;766;51.502;9.752;2024-01-11T14:58:59;-1.50;99.90
1546;DHT22;766;51.502;9.752;2024-01-11T15:01:27;-1.60;99.90
1546;DHT22;766;51.502;9.752;2024-01-11T15:03:55;-1.60;99.90
1546;DHT22;766;51.502;9.752;2024-01-11T15:06:24;-1.60;99.90
1546;DHT22;766;51.502;9.752;2024-01-11T15:08:53;-1.60;99.90
1546;DHT22;766;51.502;9.752;2024-01-11T15:11:21;-1.60;99.90
1546;DHT22;766;51.502;9.752;2024-01-11T15:13:50;-1.60;99.90
1546;DHT22;766;51.502;9.752;2024-01-11T15:16:18;-1.60;99.90
1546;DHT22;766;51.502;9.752;2024-01-11T15:18:46;-1.60;99.90
1546;DHT22;766;51.502;9.752;2024-01-11T15:21:14;-1.60;99.90
1546;DHT22;766;51.502;9.752;2024-01-11T15:23:43;-1.60;99.90
1546;DHT22;766;51.502;9.752;2024-01-11T15:26:12;-1.60;99.90
1546;DHT22;766;51.502;9.752;2024-01-11T15:28:40;-1.60;99.90
1546;DHT22;766;51.502;9.752;2024-01-11T15:31:10;-1.50;99.90
1546;DHT22;766;51.502;9.752;2024-01-11T15:33:38;-1.60;99.90
1546;DHT22;766;51.502;9.752;2024-01-11T15:36:07;-1.50;99.90
1546;DHT22;766;51.502;9.752;2024-01-11T15:38:36;-1.50;99.90
1546;DHT22;766;51.502;9.752;2024-01-11T15:41:04;-1.40;99.90
1546;DHT22;766;51.502;9.752;2024-01-11T15:43:36;-1.40;99.90
1546;DHT22;766;51.502;9.752;2024-01-11T15:46:05;-1.40;99.90
1546;DHT22;766;51.502;9.752;2024-01-11T15:48:33;-1.50;99.90
1546;DHT22;766;51.502;9.752;2024-01-11T15:51:01;-1.50;99.90
1546;DHT22;766;51.502;9.752;2024-01-11T15:53:31;-1.50;99.90
1546;DHT22;766;51.502;9.752;2024-01-11T15:55:59;-1.50;99.90
1546;DHT22;766;51.502;9.752;2024-01-11T15:58:27;-1.50;99.90
1546;DHT22;766;51.502;9.752;2024-01-11T16:01:00;-1.50;99.90
1546;DHT22;766;51.502;9.752;2024-01-11T16:03:28;-1.40;99.90
1546;DHT22;766;51.502;9.752;2024-01-11T16:05:57;-1.40;99.90
1546;DHT22;766;51.502;9.752;2024-01-11T16:08:25;-1.40;99.90
1546;DHT22;766;51.502;9.752;2024-01-11T16:10:53;-1.40;99.90
1546;DHT22;766;51.502;9.752;2024-01-11T16:13:21;-1.50;99.90
1546;DHT22;766;51.502;9.752;2024-01-11T16:15:49;-1.50;99.90
1546;DHT22;766;51.502;9.752;2024-01-11T16:18:24;-1.50;99.90
1546;DHT22;766;51.502;9.752;2024-01-11T16:20:52;-1.50;99.90
1546;DHT22;766;51.502;9.752;2024-01-11T16:23:21;-1.40;99.90
1546;DHT22;766;51.502;9.752;2024-01-11T16:25:50;-1.40;99.90
1546;DHT22;766;51.502;9.752;2024-01-11T16:28:18;-1.40;99.90
1546;DHT22;766;51.502;9.752;2024-01-11T16:30:46;-1.40;99.90
1546;DHT22;766;51.502;9.752;2024-01-11T16:33:14;-1.40;99.90